Flight Track Log - Related Links

Times and Time Zones

All times are in EDT time to prevent confusion due to time zone crossing. See the EJA396 flight status page for this flight to view local times or setup timezone preferences in your user account.

Time Position Orientation Groundspeed Altitude Reporting Facility
EDT Latitude Longitude Course Direction KTS MPH feet Rate Location/Type
Fri 08:41:09 AM 26.2706 -81.7356 336° Northwest 254 292 7,100  Level Miami Center
Fri 08:42:09 AM 26.2822 -81.8217 279° West 251 289 10,700 3,350 Climbing Miami Center
Fri 08:43:09 AM 26.2847 -81.9331 271° West 297 342 13,800 2,900 Climbing Miami Center
Fri 08:44:00 AM 26.1768 -82.3833 North  Level FlightAware Approximate
Fri 08:44:09 AM 26.2892 -82.0397 273° West 323 372 16,500  Level Miami Center
Fri 08:45:00 AM 26.2921 -82.4286 340° North  Level FlightAware Approximate
Fri 08:45:09 AM 26.2958 -82.1464 274° West 338 389 19,200  Level Miami Center
Fri 08:46:00 AM 26.4063 -82.4781 336° Northwest  Level FlightAware Approximate
Fri 08:46:09 AM 26.3022 -82.2581 274° West 356 410 21,600  Level Miami Center
Fri 08:47:09 AM 26.3103 -82.3742 274° West 369 425 23,700 2,050 Climbing Miami Center
Fri 08:48:09 AM 26.3669 -82.4764 302° West 369 425 25,700 2,000 Climbing Miami Center
Fri 08:49:09 AM 26.4697 -82.5208 339° North 362 417 27,700 2,100 Climbing Miami Center
Fri 08:50:09 AM 26.5767 -82.5631 341° North 383 441 29,900 2,200 Climbing Miami Center
Fri 08:51:09 AM 26.6811 -82.6075 339° North 383 441 32,100 1,800 Climbing Miami Center
Fri 08:52:09 AM 26.7839 -82.6475 341° North 388 447 33,500 950 Climbing Miami Center
Fri 08:53:09 AM 26.8908 -82.6900 340° North 393 452 34,000 250 Climbing Miami Center
Fri 08:54:09 AM 27.0058 -82.7378 340° North 411 473 34,000  Level Miami Center
Fri 08:55:09 AM 27.1250 -82.7833 341° North 432 497 34,000 500 Level Miami Center
Fri 08:56:09 AM 27.2417 -82.8336 339° North 443 510 35,000 1,000 Climbing Miami Center
Fri 08:57:09 AM 27.3589 -82.8794 341° North 443 510 36,000 1,000 Climbing Miami Center
Fri 08:58:09 AM 27.4736 -82.9300 339° North 438 504 37,000 1,000 Climbing Miami Center
Fri 08:59:09 AM 27.5864 -82.9758 340° North 438 504 38,000 950 Climbing Miami Center
Fri 09:00:09 AM 27.7031 -83.0242 340° North 438 504 38,900 591 Climbing Miami Center
Fri 09:02:32 AM 27.9556 -83.1275 340° North 427 491 40,000 325 Climbing Jacksonville Center
Fri 09:03:32 AM 28.0725 -83.1608 346° North 427 491 40,000  Level Jacksonville Center
Fri 09:04:32 AM 28.1914 -83.1847 350° North 427 491 40,000  Level Jacksonville Center
Fri 09:05:32 AM 28.3122 -83.2156 347° North 432 497 40,000  Level Jacksonville Center
Fri 09:06:32 AM 28.4247 -83.2678 338° Northwest 427 491 40,000  Level Jacksonville Center
Fri 09:07:32 AM 28.5311 -83.3250 335° Northwest 427 491 40,000  Level Jacksonville Center
Fri 09:08:32 AM 28.6394 -83.3822 335° Northwest 427 491 40,000  Level Jacksonville Center
Fri 09:09:32 AM 28.7414 -83.4539 328° Northwest 427 491 40,000  Level Jacksonville Center
Fri 09:10:32 AM 28.8411 -83.5325 325° Northwest 432 497 40,000  Level Jacksonville Center
Fri 09:11:32 AM 28.9389 -83.6044 327° Northwest 432 497 40,000  Level Jacksonville Center
Fri 09:12:32 AM 29.0386 -83.6786 327° Northwest 432 497 40,000  Level Jacksonville Center
Fri 09:13:32 AM 29.1406 -83.7556 327° Northwest 432 497 40,000  Level Jacksonville Center
Fri 09:14:32 AM 29.2400 -83.8325 326° Northwest 432 497 40,000  Level Jacksonville Center
Fri 09:15:32 AM 29.3397 -83.9050 328° Northwest 432 497 40,000  Level Jacksonville Center
Fri 09:16:32 AM 29.4414 -83.9825 326° Northwest 432 497 40,000  Level Jacksonville Center
Fri 09:17:32 AM 29.5408 -84.0575 327° Northwest 432 497 40,000  Level Jacksonville Center
Fri 09:18:32 AM 29.6425 -84.1353 326° Northwest 432 497 40,000  Level Jacksonville Center
Fri 09:19:32 AM 29.7397 -84.2106 326° Northwest 432 497 40,000  Level Jacksonville Center
Fri 09:20:32 AM 29.8497 -84.2933 327° Northwest 432 497 40,000  Level Jacksonville Center
Fri 09:21:32 AM 29.9511 -84.3692 327° Northwest 432 497 40,000  Level Jacksonville Center
Fri 09:22:32 AM 30.0461 -84.4450 325° Northwest 432 497 40,000  Level Jacksonville Center
Fri 09:23:32 AM 30.1456 -84.5236 326° Northwest 427 491 40,000  Level Jacksonville Center
Fri 09:24:32 AM 30.2467 -84.5975 328° Northwest 427 491 40,000  Level Jacksonville Center
Fri 09:25:32 AM 30.3378 -84.6689 326° Northwest 434 499 40,000  Level Jacksonville Center
Fri 09:26:32 AM 30.4389 -84.7478 326° Northwest 434 499 40,000  Level Jacksonville Center
Fri 09:27:32 AM 30.5381 -84.8219 327° Northwest 434 499 40,000  Level Jacksonville Center
Fri 09:28:32 AM 30.6369 -84.9014 325° Northwest 434 499 40,000  Level Jacksonville Center
Fri 09:29:32 AM 30.7358 -84.9783 326° Northwest 434 499 40,000  Level Jacksonville Center
Fri 09:30:32 AM 30.8369 -85.0581 326° Northwest 434 499 40,000  Level Jacksonville Center
Fri 09:31:32 AM 30.9358 -85.1353 326° Northwest 434 499 40,000  Level Jacksonville Center
Fri 09:32:32 AM 31.0347 -85.2103 327° Northwest 434 499 40,000  Level Jacksonville Center
Fri 09:33:32 AM 31.1333 -85.2906 325° Northwest 434 499 40,000  Level Jacksonville Center
Fri 09:36:01 AM 31.3769 -85.4883 325° Northwest 426 490 40,000  Level Atlanta Center
Fri 09:37:01 AM 31.4764 -85.5681 326° Northwest 426 490 40,000  Level Atlanta Center
Fri 09:38:01 AM 31.5775 -85.6478 326° Northwest 431 496 40,000  Level Atlanta Center
Fri 09:39:01 AM 31.6786 -85.7300 325° Northwest 436 502 40,000  Level Atlanta Center
Fri 09:40:01 AM 31.7900 -85.8225 325° Northwest 444 511 40,000  Level Atlanta Center
Fri 09:41:01 AM 31.8911 -85.9003 327° Northwest 444 511 40,000  Level Atlanta Center
Fri 09:42:01 AM 31.9964 -85.9808 327° Northwest 444 511 40,000  Level Atlanta Center
Fri 09:43:01 AM 32.0972 -86.0664 324° Northwest 444 511 40,000  Level Atlanta Center
Fri 09:44:01 AM 32.2003 -86.1497 326° Northwest 449 517 40,000  Level Atlanta Center
Fri 09:45:01 AM 32.2992 -86.2308 325° Northwest 443 510 40,000  Level Atlanta Center
Fri 09:46:01 AM 32.4000 -86.3119 326° Northwest 438 504 40,000  Level Atlanta Center
Fri 09:47:01 AM 32.4983 -86.3981 324° Northwest 449 517 40,000  Level Atlanta Center
Fri 09:48:01 AM 32.6053 -86.4800 327° Northwest 449 517 40,000  Level Atlanta Center
Fri 09:49:01 AM 32.7081 -86.5667 325° Northwest 449 517 40,000  Level Atlanta Center
Fri 09:50:01 AM 32.8086 -86.6486 326° Northwest 449 517 40,000  Level Atlanta Center
Fri 09:51:01 AM 32.9089 -86.7333 325° Northwest 449 517 40,000  Level Atlanta Center
Fri 09:52:01 AM 33.0117 -86.8158 326° Northwest 449 517 40,000  Level Atlanta Center
Fri 09:53:01 AM 33.1139 -86.9058 324° Northwest 449 517 40,000  Level Atlanta Center
Fri 09:54:01 AM 33.2183 -86.9886 326° Northwest 449 517 40,000  Level Atlanta Center
Fri 09:55:01 AM 33.3083 -87.0664 324° Northwest 449 517 40,000  Level Atlanta Center
Fri 09:56:01 AM 33.4106 -87.1519 325° Northwest 449 517 40,000  Level Atlanta Center
Fri 09:57:01 AM 33.5106 -87.2378 324° Northwest 449 517 40,000  Level Atlanta Center
Fri 09:59:08 AM 33.7417 -87.4369 324° Northwest 469 540 40,000  Level Memphis Center
Fri 10:00:08 AM 33.8394 -87.5136 327° Northwest 469 540 40,000  Level Memphis Center
Fri 10:01:08 AM 33.9417 -87.6031 324° Northwest 457 526 40,000  Level Memphis Center
Fri 10:02:08 AM 34.0458 -87.6900 325° Northwest 456 525 40,000  Level Memphis Center
Fri 10:03:08 AM 34.1478 -87.7772 325° Northwest 456 525 40,000  Level Memphis Center
Fri 10:04:08 AM 34.2606 -87.8767 324° Northwest 456 525 40,000  Level Memphis Center
Fri 10:05:08 AM 34.3644 -87.9669 324° Northwest 456 525 40,000  Level Memphis Center
Fri 10:06:08 AM 34.4686 -88.0544 325° Northwest 459 528 40,000  Level Memphis Center
Fri 10:07:08 AM 34.5744 -88.1475 324° Northwest 459 528 40,000  Level Memphis Center
Fri 10:08:08 AM 34.6783 -88.2433 323° Northwest 464 534 40,000  Level Memphis Center
Fri 10:09:08 AM 34.7822 -88.3342 324° Northwest 464 534 40,000  Level Memphis Center
Fri 10:10:08 AM 34.8858 -88.4256 324° Northwest 469 540 40,000  Level Memphis Center
Fri 10:11:08 AM 34.9956 -88.5142 327° Northwest 469 540 40,000  Level Memphis Center
Fri 10:12:08 AM 35.0992 -88.6083 323° Northwest 463 533 40,000  Level Memphis Center
Fri 10:13:08 AM 35.2092 -88.7053 324° Northwest 475 547 40,000  Level Memphis Center
Fri 10:14:08 AM 35.3125 -88.7972 324° Northwest 475 547 40,000  Level Memphis Center
Fri 10:15:08 AM 35.4200 -88.8947 324° Northwest 475 547 40,000  Level Memphis Center
Fri 10:16:08 AM 35.5150 -88.9797 324° Northwest 475 547 40,000  Level Memphis Center
Fri 10:17:08 AM 35.6264 -89.0800 324° Northwest 483 556 40,000  Level Memphis Center
Fri 10:18:08 AM 35.7381 -89.1831 323° Northwest 477 549 40,000  Level Memphis Center
Fri 10:19:08 AM 35.8433 -89.2814 323° Northwest 472 543 40,000  Level Memphis Center
Fri 10:20:08 AM 35.9356 -89.3675 323° Northwest 472 543 40,000  Level Memphis Center
Fri 10:21:08 AM 36.0447 -89.4661 324° Northwest 472 543 40,000  Level Memphis Center
Fri 10:22:08 AM 36.1519 -89.5678 323° Northwest 472 543 40,000  Level Memphis Center
Fri 10:23:08 AM 36.2589 -89.6672 323° Northwest 477 549 40,000  Level Memphis Center
Fri 10:24:08 AM 36.3678 -89.7667 324° Northwest 483 556 40,000  Level Memphis Center
Fri 10:25:08 AM 36.4767 -89.8667 324° Northwest 483 556 40,000  Level Memphis Center
Fri 10:26:08 AM 36.5811 -89.9617 324° Northwest 483 556 40,000  Level Memphis Center
Fri 10:27:08 AM 36.6897 -90.0619 323° Northwest 483 556 40,000  Level Memphis Center
Fri 10:29:06 AM 36.9072 -90.2592 324° Northwest 480 552 40,000  Level Kansas City Center
Fri 10:30:08 AM 37.0139 -90.3603 323° Northwest 481 554 40,000  Level Kansas City Center
Fri 10:31:09 AM 37.1206 -90.4603 323° Northwest 479 551 40,000  Level Kansas City Center
Fri 10:32:11 AM 37.2278 -90.5606 323° Northwest 479 551 40,000  Level Kansas City Center
Fri 10:33:12 AM 37.3461 -90.6731 323° Northwest 480 552 40,000  Level Kansas City Center
Fri 10:34:14 AM 37.4478 -90.7733 322° Northwest 483 556 40,000  Level Kansas City Center
Fri 10:35:15 AM 37.5550 -90.8758 323° Northwest 482 555 40,000  Level Kansas City Center
Fri 10:36:17 AM 37.6650 -90.9831 322° Northwest 483 556 40,000  Level Kansas City Center
Fri 10:37:19 AM 37.7692 -91.0839 323° Northwest 484 557 40,000  Level Kansas City Center
Fri 10:38:20 AM 37.8997 -91.2100 323° Northwest 489 563 40,000  Level Kansas City Center
Fri 10:39:22 AM 38.0058 -91.3147 322° Northwest 488 562 40,000  Level Kansas City Center
Fri 10:40:23 AM 38.1142 -91.4206 322° Northwest 488 562 40,000  Level Kansas City Center
Fri 10:41:25 AM 38.2208 -91.5247 323° Northwest 486 559 40,000  Level Kansas City Center
Fri 10:42:27 AM 38.3261 -91.6289 322° Northwest 483 556 40,000  Level Kansas City Center
Fri 10:43:28 AM 38.4325 -91.7353 322° Northwest 485 558 40,000  Level Kansas City Center
Fri 10:44:30 AM 38.5389 -91.8400 322° Northwest 484 557 40,000  Level Kansas City Center
Fri 10:45:32 AM 38.6453 -91.9464 322° Northwest 484 557 40,000  Level Kansas City Center
Fri 10:46:33 AM 38.7725 -92.0744 322° Northwest 484 557 40,000  Level Kansas City Center
Fri 10:47:35 AM 38.8786 -92.1822 322° Northwest 485 558 40,000  Level Kansas City Center
Fri 10:48:37 AM 38.9842 -92.2883 322° Northwest 483 556 40,000  Level Kansas City Center
Fri 10:49:38 AM 39.0906 -92.3961 322° Northwest 485 558 40,000  Level Kansas City Center
Fri 10:50:40 AM 39.1969 -92.5014 323° Northwest 483 556 40,000  Level Kansas City Center
Fri 10:51:42 AM 39.3139 -92.6194 322° Northwest 483 556 40,000  Level Kansas City Center
Fri 10:52:43 AM 39.4189 -92.7264 322° Northwest 483 556 40,000  Level Kansas City Center
Fri 10:53:45 AM 39.5250 -92.8358 322° Northwest 484 557 40,000  Level Kansas City Center
Fri 10:54:46 AM 39.6306 -92.9464 321° Northwest 487 560 40,000  Level Kansas City Center
Fri 10:55:48 AM 39.7350 -93.0531 322° Northwest 483 556 40,000  Level Kansas City Center
Fri 10:56:50 AM 39.8442 -93.1708 320° Northwest 502 578 40,000  Level Kansas City Center
Fri 10:57:51 AM 39.9497 -93.2797 322° Northwest 492 566 40,000  Level Kansas City Center
Fri 10:58:53 AM 40.0742 -93.4133 321° Northwest 484 557 40,000 -629 Level Kansas City Center
Fri 10:59:55 AM 40.1794 -93.5239 321° Northwest 486 559 38,700 -2,226 Descending Kansas City Center
Fri 11:00:57 AM 40.2833 -93.6339 321° Northwest 483 556 35,400 -2,274 Descending Kansas City Center
Fri 11:01:59 AM 40.3922 -93.7503 321° Northwest 496 571 34,000 -944 Descending Kansas City Center
Fri 11:02:26 AM 40.4342 -93.7964 320° Northwest 500 575 34,000 -337 Level Minneapolis Center
Fri 11:03:28 AM 40.5431 -93.9147 320° Northwest 507 583 33,500 -1,548 Descending Minneapolis Center
Fri 11:04:30 AM 40.6183 -94.1086 297° West 498 573 30,800 -2,634 Descending Minneapolis Center
Fri 11:05:31 AM 40.6450 -94.2836 281° West 490 564 28,100 -2,488 Descending Minneapolis Center
Fri 11:06:33 AM 40.6692 -94.4194 283° West 484 557 25,700 -2,952 Descending Minneapolis Center
Fri 11:07:35 AM 40.7003 -94.6083 282° West 455 524 22,000 -3,415 Descending Minneapolis Center
Fri 11:08:36 AM 40.7239 -94.7611 282° West 433 498 18,700 -3,000 Descending Minneapolis Center
Fri 11:09:15 AM 40.7575 -94.8661 293° West 388 447 17,000 -2,172 Descending Minneapolis Center
Fri 11:09:34 AM 40.7647 -94.9067 283° West 380 437 16,600 -1,482 Descending Minneapolis Center
Fri 11:10:40 AM 40.7731 -95.0603 274° West 389 448 14,900 -1,701 Descending Minneapolis Center
Fri 11:11:41 AM 40.8228 -95.1600 303° West 353 406 13,000 -1,983 Descending Minneapolis Center
Fri 11:12:41 AM 40.8886 -95.2492 314° West 326 375 10,900 -1,884 Descending Minneapolis Center
Fri 11:13:42 AM 40.9339 -95.3292 307° West 271 312 9,200 -1,869 Descending Minneapolis Center
Fri 11:14:43 AM 40.9819 -95.4142 307° West 257 296 7,100 -1,895 Descending Minneapolis Center
Fri 11:14:58 AM 40.9831 -95.4264 277° West 277 319 6,800 -1,800 Descending Minneapolis Center
Fri 11:15:43 AM 41.0244 -95.4836 314° West 243 280 5,300 -1,645 Descending Minneapolis Center
Fri 11:16:00 AM 41.0250 -95.4964 273° West 260 299 5,100 -1,279 Descending Minneapolis Center
Fri 11:16:44 AM 41.0650 -95.5561 312° West 246 283 4,000 -1,161 Descending Minneapolis Center
Fri 11:17:02 AM 41.0669 -95.5675 283° West 251 289 3,900 -822 Descending Minneapolis Center
Fri 11:17:57 AM 41.1128 -95.6389 310° West 227 261 3,000 -522 Descending Minneapolis Center
Fri 11:18:57 AM 41.1481 -95.6983 308° West 210 242 2,900 -110 Descending Minneapolis Center
Fri 11:19:46 AM 41.1764 -95.7450 309° West 203 234 2,800 -86 Descending Minneapolis Center
Fri 11:20:07 AM 41.1886 -95.7631 312° West 214 246 2,800  Level Minneapolis Center
Fri 11:20:41 AM 41.2092 -95.7964 309° West 183 211 2,800  Level Minneapolis Center
Fri 11:21:08 AM 41.2225 -95.8158 312° West 203 234 2,800 -400 Level Minneapolis Center
Fri 11:21:41 AM 41.2433 -95.8369 323° Northwest 142 163 2,400 -677 Descending Minneapolis Center
Fri 11:22:10 AM 41.2533 -95.8431 335° Northwest 163 188 2,100 -627 Descending Minneapolis Center
Fri 11:22:48 AM 41.2722 -95.8639 320° Northwest 103 119 1,700 -590 Descending Minneapolis Center
Fri 11:23:11 AM 41.2783 -95.8678 334° Northwest 133 153 1,500 -494 Descending Minneapolis Center
Fri 11:24:13 AM 41.2997 -95.8886 324° Northwest 114 131 1,000 -484 Descending Minneapolis Center

Login

Don't have an account? Register now (free) for customized features, flight alerts, and more!